Main page
METAR-TAF:

METAR-TAF

Airports :

Tiree Airport

Tiree, Scotland

latitude: 56-30N, longitude: 006-53W, elevation: 12 m

Current weather observation

The report was made 24 minutes ago, at 18:50 UTC
Wind 11 kt from the North/Northwest
Temperature 14°C
Humidity 94%
Pressure 999 hPa
Visibility 10 km or more
Broken clouds at a height of 800 ft
Broken clouds at a height of 1200 ft

METAR: EGPU 281850Z 34011KT 9999 BKN008 BKN012 14/13 Q0999

Time: 20:14 (19:14 UTC)

Forecast

The report was made 4 hours and 19 minutes ago, at 14:55 UTC
Forecast valid from 28 at 15 UTC to 28 at 18 UTC
Wind 12 kt from the West
Visibility 10 km or more
Few clouds at a height of 1200 ft
Broken clouds at a height of 2000 ft
Temporary
from 28 at 15 UTC to 28 at 18 UTC
Visibility: 3000 m
Broken clouds at a height of 400 ft
rain, drizzle

TAF: EGPU 281455Z 2815/2818 28012KT 9999 FEW012 BKN020 TEMPO 2815/2818 3000 RADZ BKN004

Weather observations and forecasts of more than 4000 airports (METAR and TAF reports).

The available stations are represented by yellow and red dots on the map.

Hover mouse over dot to see the name of the station.

Then click to see weather observations and forecasts.

To change the map : click on the green buttons with a black cross to zoom in, on the green button with a dash to zoom out, or on the green arrows for adjacent maps.


METAR-TAF: